createdAt,value
2018-07-22T00:01:43.491Z,14.07
2018-07-22T00:04:11.193Z,13.85
2018-07-22T00:06:38.872Z,15.08
2018-07-22T00:09:09.415Z,15.10
2018-07-22T00:11:37.092Z,13.35
2018-07-22T00:14:05.006Z,13.50
2018-07-22T00:16:32.720Z,13.78
2018-07-22T00:19:00.418Z,13.25
2018-07-22T00:21:28.321Z,13.70
2018-07-22T00:23:56.078Z,13.78
2018-07-22T00:26:23.742Z,13.53
2018-07-22T00:28:51.559Z,13.68
2018-07-22T00:31:19.259Z,13.58
2018-07-22T00:33:46.916Z,13.53
2018-07-22T00:36:14.632Z,13.85
2018-07-22T00:38:42.372Z,12.20
2018-07-22T00:41:10.032Z,14.28
2018-07-22T00:43:37.804Z,14.98
2018-07-22T00:46:05.775Z,14.70
2018-07-22T00:48:33.461Z,13.35
2018-07-22T00:51:01.155Z,13.93
2018-07-22T00:53:28.835Z,15.00
2018-07-22T00:55:56.555Z,13.58
2018-07-22T00:58:24.345Z,13.03
2018-07-22T01:00:52.105Z,14.00
2018-07-22T01:03:19.828Z,13.95
2018-07-22T01:05:47.501Z,14.25
2018-07-22T01:08:15.211Z,14.07
2018-07-22T01:10:43.347Z,14.03
2018-07-22T01:13:11.018Z,13.18
2018-07-22T01:15:38.744Z,14.75
2018-07-22T01:18:06.490Z,14.98
2018-07-22T01:20:34.179Z,13.65
2018-07-22T01:23:01.861Z,13.25
2018-07-22T01:25:29.513Z,13.72
2018-07-22T01:27:57.299Z,15.35
2018-07-22T01:30:24.955Z,13.53
2018-07-22T01:32:52.755Z,13.55
2018-07-22T01:35:20.390Z,13.80
2018-07-22T01:37:48.088Z,13.50
2018-07-22T01:40:15.756Z,12.85
2018-07-22T01:42:43.536Z,13.78
2018-07-22T01:45:11.178Z,13.72
2018-07-22T01:47:39.023Z,13.13
2018-07-22T01:50:06.783Z,14.30
2018-07-22T01:52:34.541Z,14.50
2018-07-22T01:55:02.245Z,15.32
2018-07-22T01:57:29.897Z,13.28
2018-07-22T01:59:57.841Z,14.83
2018-07-22T02:02:25.629Z,14.75
2018-07-22T02:04:53.324Z,15.32
2018-07-22T02:07:21.014Z,13.88
2018-07-22T02:09:48.663Z,13.78
2018-07-22T02:12:16.370Z,13.28
2018-07-22T02:14:44.023Z,13.50
2018-07-22T02:17:11.819Z,14.73
2018-07-22T02:19:39.491Z,13.32
2018-07-22T02:22:07.216Z,13.45
2018-07-22T02:24:34.874Z,13.43
2018-07-22T02:27:02.555Z,13.08
2018-07-22T02:29:30.187Z,14.40
2018-07-22T02:31:57.812Z,13.48
2018-07-22T02:34:25.508Z,13.55
2018-07-22T02:36:53.212Z,14.07
2018-07-22T02:39:20.907Z,13.88
2018-07-22T02:41:48.529Z,14.13
2018-07-22T02:44:16.212Z,14.93
2018-07-22T02:46:43.866Z,14.43
2018-07-22T02:49:11.628Z,12.43
2018-07-22T02:51:39.328Z,14.30
2018-07-22T02:54:07.036Z,13.35
2018-07-22T02:56:34.691Z,13.35
2018-07-22T02:59:03.730Z,14.23
2018-07-22T03:01:32.812Z,14.80
2018-07-22T03:04:00.867Z,14.55
2018-07-22T03:06:28.507Z,14.78
2018-07-22T03:08:56.200Z,14.38
2018-07-22T03:11:23.847Z,14.10
2018-07-22T03:13:51.521Z,13.75
2018-07-22T03:16:19.235Z,13.53
2018-07-22T03:18:46.880Z,14.30
2018-07-22T03:21:14.632Z,14.75
2018-07-22T03:23:42.278Z,14.90
2018-07-22T03:26:10.053Z,14.00
2018-07-22T03:28:37.732Z,15.43
2018-07-22T03:31:05.406Z,14.40
2018-07-22T03:33:33.063Z,13.22
2018-07-22T03:36:00.763Z,14.10
2018-07-22T03:38:28.403Z,13.05
2018-07-22T03:40:56.217Z,13.55
2018-07-22T03:43:23.870Z,14.90
2018-07-22T03:45:51.551Z,14.80
2018-07-22T03:48:19.213Z,14.83
2018-07-22T03:50:47.021Z,14.07
2018-07-22T03:53:14.676Z,13.65
2018-07-22T03:55:42.381Z,13.60
2018-07-22T03:58:10.163Z,13.80
2018-07-22T04:00:37.840Z,13.93
2018-07-22T04:03:05.800Z,13.68
2018-07-22T04:05:33.463Z,13.60
2018-07-22T04:08:01.221Z,12.78
2018-07-22T04:10:28.852Z,14.18
2018-07-22T04:12:56.695Z,14.58
2018-07-22T04:15:24.648Z,14.58
2018-07-22T04:17:52.359Z,13.60
2018-07-22T04:20:20.003Z,13.10
2018-07-22T04:22:47.743Z,14.30
2018-07-22T04:25:15.395Z,13.95
2018-07-22T04:27:43.151Z,15.38
2018-07-22T04:30:10.808Z,12.95
2018-07-22T04:32:38.502Z,14.80
2018-07-22T04:35:06.171Z,14.85
2018-07-22T04:37:33.999Z,15.05
2018-07-22T04:40:01.683Z,14.73
2018-07-22T04:42:29.336Z,13.90
2018-07-22T04:44:57.140Z,15.55
2018-07-22T04:47:24.798Z,15.00
2018-07-22T04:49:52.466Z,15.68
2018-07-22T04:52:20.117Z,15.70
2018-07-22T04:54:47.852Z,15.40
2018-07-22T04:57:15.514Z,15.60
2018-07-22T04:59:43.192Z,15.68
2018-07-22T05:02:11.254Z,15.43
2018-07-22T05:04:38.904Z,14.50
2018-07-22T05:07:06.618Z,15.90
2018-07-22T05:09:34.378Z,15.60
2018-07-22T05:12:02.280Z,14.95
2018-07-22T05:14:29.928Z,15.10
2018-07-22T05:16:57.747Z,16.00
2018-07-22T05:19:25.403Z,15.68
2018-07-22T05:21:53.064Z,15.80
2018-07-22T05:24:20.731Z,15.53
2018-07-22T05:26:48.527Z,16.70
2018-07-22T05:29:16.141Z,16.30
2018-07-22T05:31:43.951Z,17.10
2018-07-22T05:34:11.618Z,16.02
2018-07-22T05:36:39.304Z,16.15
2018-07-22T05:39:08.737Z,15.08
2018-07-22T05:41:36.418Z,15.93
2018-07-22T05:44:04.255Z,14.50
2018-07-22T05:46:31.890Z,15.50
2018-07-22T05:48:59.709Z,13.85
2018-07-22T05:51:27.375Z,15.08
2018-07-22T05:53:55.143Z,15.23
2018-07-22T05:56:22.806Z,15.30
2018-07-22T05:58:50.647Z,16.27
2018-07-22T06:01:18.335Z,15.93
2018-07-22T06:03:46.111Z,15.23
2018-07-22T06:06:13.900Z,14.93
2018-07-22T06:08:41.462Z,15.70
2018-07-22T06:11:09.111Z,14.70
2018-07-22T06:13:36.826Z,15.03
2018-07-22T06:16:04.536Z,14.95
2018-07-22T06:18:32.381Z,15.25
2018-07-22T06:21:00.039Z,14.80
2018-07-22T06:23:27.796Z,14.33
2018-07-22T06:25:55.477Z,13.88
2018-07-22T06:28:23.166Z,14.50
2018-07-22T06:30:50.952Z,14.98
2018-07-22T06:33:18.606Z,14.80
2018-07-22T06:35:46.336Z,15.08
2018-07-22T06:38:14.015Z,15.20
2018-07-22T06:40:41.695Z,15.18
2018-07-22T06:43:09.647Z,15.25
2018-07-22T06:45:37.369Z,15.58
2018-07-22T06:48:05.125Z,15.72
2018-07-22T06:50:32.818Z,15.85
2018-07-22T06:53:00.497Z,15.45
2018-07-22T06:55:28.223Z,16.07
2018-07-22T06:57:56.006Z,16.15
2018-07-22T07:00:23.954Z,15.05
2018-07-22T07:02:51.668Z,15.85
2018-07-22T07:05:19.445Z,15.23
2018-07-22T07:07:47.154Z,14.73
2018-07-22T07:10:14.833Z,15.95
2018-07-22T07:12:42.551Z,13.35
2018-07-22T07:15:10.306Z,15.55
2018-07-22T07:17:38.114Z,15.30
2018-07-22T07:20:05.832Z,14.03
2018-07-22T07:22:33.555Z,16.50
2018-07-22T07:25:01.318Z,15.95
2018-07-22T07:27:28.998Z,15.88
2018-07-22T07:29:56.696Z,16.10
2018-07-22T07:32:24.522Z,15.70
2018-07-22T07:34:52.181Z,16.50
2018-07-22T07:37:19.860Z,16.25
2018-07-22T07:39:47.545Z,16.42
2018-07-22T07:42:15.290Z,17.17
2018-07-22T07:44:43.008Z,15.50
2018-07-22T07:47:10.684Z,16.12
2018-07-22T07:49:38.512Z,16.30
2018-07-22T07:52:06.196Z,16.05
2018-07-22T07:54:33.963Z,17.23
2018-07-22T07:57:01.644Z,16.32
2018-07-22T07:59:29.482Z,16.20
2018-07-22T08:01:57.178Z,16.35
2018-07-22T08:04:25.014Z,17.40
2018-07-22T08:06:52.664Z,17.77
2018-07-22T08:09:20.401Z,17.57
2018-07-22T08:11:48.165Z,17.35
2018-07-22T08:14:15.881Z,16.62
2018-07-22T08:16:43.592Z,16.70
2018-07-22T08:19:11.352Z,16.67
2018-07-22T08:21:39.220Z,15.43
2018-07-22T08:24:06.892Z,14.25
2018-07-22T08:26:34.654Z,13.75
2018-07-22T08:29:28.671Z,15.48
2018-07-22T08:31:56.645Z,15.28
2018-07-22T08:34:24.330Z,15.65
2018-07-22T08:36:52.116Z,14.25
2018-07-22T08:39:21.976Z,14.47
2018-07-22T08:41:50.560Z,14.25
2018-07-22T08:44:18.268Z,16.00
2018-07-22T08:46:45.996Z,14.53
2018-07-22T08:49:13.685Z,15.50
2018-07-22T08:51:41.368Z,14.38
2018-07-22T08:54:09.150Z,14.90
2018-07-22T08:56:36.876Z,12.23
2018-07-22T08:59:05.189Z,14.15
2018-07-22T09:01:34.159Z,13.63
2018-07-22T09:04:01.964Z,13.98
2018-07-22T09:06:29.933Z,13.20
2018-07-22T09:08:57.748Z,12.40
2018-07-22T09:11:25.712Z,11.63
2018-07-22T09:13:54.085Z,12.80
2018-07-22T09:16:21.795Z,12.93
2018-07-22T09:18:49.533Z,12.80
2018-07-22T09:21:17.279Z,12.53
2018-07-22T09:23:44.989Z,13.50
2018-07-22T09:26:12.706Z,12.70
2018-07-22T09:28:40.401Z,13.10
2018-07-22T09:31:08.236Z,12.60
2018-07-22T09:33:36.091Z,12.13
2018-07-22T09:36:03.955Z,13.03
2018-07-22T09:38:31.574Z,12.30
2018-07-22T09:40:59.312Z,12.10
2018-07-22T09:43:27.564Z,12.00
2018-07-22T09:45:55.505Z,12.00
2018-07-22T09:48:23.406Z,12.17
2018-07-22T09:50:51.160Z,11.17
2018-07-22T09:53:19.247Z,11.93
2018-07-22T09:55:47.454Z,10.90
2018-07-22T09:58:15.172Z,11.53
2018-07-22T10:00:48.615Z,9.90
2018-07-22T10:03:16.507Z,11.13
2018-07-22T10:05:44.200Z,10.27
2018-07-22T10:08:11.904Z,10.03
2018-07-22T10:10:39.649Z,11.33
2018-07-22T10:13:07.876Z,10.10
2018-07-22T10:15:35.623Z,11.00
2018-07-22T10:18:03.355Z,10.40
2018-07-22T10:20:31.270Z,10.87
2018-07-22T10:22:59.024Z,10.37
2018-07-22T10:25:26.738Z,11.57
2018-07-22T10:27:54.578Z,11.20
2018-07-22T10:30:22.319Z,10.73
2018-07-22T10:32:50.191Z,10.90
2018-07-22T10:35:17.984Z,9.70
2018-07-22T10:37:45.713Z,9.77
2018-07-22T10:40:14.186Z,9.97
2018-07-22T10:42:41.962Z,10.07
2018-07-22T10:45:09.680Z,11.63
2018-07-22T10:47:37.967Z,9.50
2018-07-22T10:50:05.838Z,10.20
2018-07-22T10:52:33.589Z,11.07
2018-07-22T10:55:01.300Z,10.47
2018-07-22T10:57:29.056Z,10.63
2018-07-22T10:59:56.773Z,10.67
2018-07-22T11:02:24.730Z,10.30
2018-07-22T11:04:52.604Z,9.93
2018-07-22T11:07:20.930Z,9.83
2018-07-22T11:09:48.640Z,11.00
2018-07-22T11:12:16.323Z,10.70
2018-07-22T11:14:44.124Z,10.33
2018-07-22T11:17:11.895Z,10.97
2018-07-22T11:19:39.578Z,10.23
2018-07-22T11:22:07.715Z,10.70
2018-07-22T11:24:35.437Z,10.40
2018-07-22T11:27:03.184Z,10.73
2018-07-22T11:29:30.887Z,10.80
2018-07-22T11:31:58.755Z,11.77
2018-07-22T11:34:26.414Z,11.83
2018-07-22T11:36:54.196Z,11.60
2018-07-22T11:39:21.868Z,11.40
2018-07-22T11:41:49.610Z,11.77
2018-07-22T11:44:17.308Z,11.43
2018-07-22T11:46:45.012Z,11.80
2018-07-22T11:49:12.828Z,10.57
2018-07-22T11:51:40.595Z,12.00
2018-07-22T13:21:45.159Z,21.03
2018-07-22T13:24:15.203Z,20.97
2018-07-22T13:26:43.011Z,21.00
2018-07-22T13:29:10.708Z,22.00
2018-07-22T13:31:38.607Z,18.73
2018-07-22T13:34:08.338Z,15.93
2018-07-22T13:36:36.080Z,12.35
2018-07-22T13:39:07.708Z,10.72
2018-07-22T13:41:38.015Z,9.65
2018-07-22T13:44:07.859Z,6.92
2018-07-22T13:46:36.089Z,6.10
2018-07-22T13:49:06.879Z,6.80
2018-07-22T13:51:34.828Z,6.75
2018-07-22T13:54:10.932Z,7.83
2018-07-22T13:56:38.789Z,7.25
2018-07-22T14:01:55.090Z,11.65
2018-07-22T14:04:23.827Z,11.80
2018-07-22T14:06:51.562Z,11.63
2018-07-22T14:09:19.351Z,11.85
2018-07-22T14:11:47.105Z,12.88
2018-07-22T14:14:14.871Z,12.30
2018-07-22T14:16:42.739Z,12.85
2018-07-22T14:19:10.668Z,13.65
2018-07-22T14:21:38.490Z,12.43
2018-07-22T14:24:06.204Z,12.35
2018-07-22T14:26:33.925Z,13.20
2018-07-22T14:29:01.638Z,12.23
2018-07-22T14:31:30.009Z,13.80
2018-07-22T14:33:57.684Z,13.50
2018-07-22T14:36:25.532Z,13.58
2018-07-22T14:38:53.226Z,15.23
2018-07-22T14:41:21.044Z,14.78
2018-07-22T14:43:48.745Z,16.15
2018-07-22T14:46:16.508Z,17.65
2018-07-22T14:48:45.121Z,18.70
2018-07-22T14:51:13.770Z,20.08
2018-07-22T14:53:41.550Z,19.23
2018-07-22T14:56:09.333Z,16.80
2018-07-22T14:58:37.224Z,24.20
2018-07-22T15:01:04.975Z,26.20
2018-07-22T15:03:32.851Z,15.60
2018-07-22T15:06:00.603Z,15.08
2018-07-22T15:08:28.366Z,16.82
2018-07-22T15:10:56.313Z,16.60
2018-07-22T15:13:24.099Z,18.50
2018-07-22T15:15:51.866Z,22.70
2018-07-22T15:18:19.675Z,32.03
2018-07-22T15:20:47.546Z,31.48
2018-07-22T15:23:15.280Z,34.33
2018-07-22T15:25:42.979Z,28.10
2018-07-22T15:28:10.675Z,17.90
2018-07-22T15:30:38.522Z,24.52
2018-07-22T15:33:06.364Z,39.90
2018-07-22T15:35:34.136Z,39.50
2018-07-22T15:38:01.871Z,30.80
2018-07-22T15:40:29.599Z,33.35
2018-07-22T15:42:57.330Z,23.98
2018-07-22T15:45:24.996Z,23.22
2018-07-22T15:47:52.879Z,27.42
2018-07-22T15:50:20.672Z,25.23
2018-07-22T15:52:48.542Z,34.40
2018-07-22T15:55:16.381Z,31.48
2018-07-22T15:57:44.183Z,21.23
2018-07-22T16:00:12.097Z,20.43
2018-07-22T16:02:39.911Z,16.90
2018-07-22T16:05:07.676Z,17.75
2018-07-22T16:07:35.764Z,17.52
2018-07-22T16:10:03.489Z,22.42
2018-07-22T16:12:31.206Z,24.45
2018-07-22T16:14:59.049Z,22.15
2018-07-22T16:17:26.952Z,19.20
2018-07-22T16:19:54.624Z,20.57
2018-07-22T16:22:22.436Z,19.90
2018-07-22T16:24:50.232Z,19.85
2018-07-22T16:27:17.957Z,22.42
2018-07-22T16:29:45.764Z,18.10
2018-07-22T16:32:13.602Z,19.20
2018-07-22T16:34:41.404Z,17.55
2018-07-22T16:37:09.132Z,19.15
2018-07-22T16:39:36.870Z,18.25
2018-07-22T16:42:04.637Z,19.62
2018-07-22T16:44:32.396Z,18.15
2018-07-22T16:47:00.151Z,18.05
2018-07-22T16:49:27.904Z,18.62
2018-07-22T16:51:55.602Z,18.30
2018-07-22T16:54:23.393Z,25.92
2018-07-22T16:56:51.077Z,19.82
2018-07-22T16:59:18.992Z,18.30
2018-07-22T17:01:46.682Z,17.62
2018-07-22T17:04:14.442Z,17.57
2018-07-22T17:06:42.234Z,18.25
2018-07-22T17:09:10.871Z,19.37
2018-07-22T17:11:38.691Z,16.32
2018-07-22T17:14:06.406Z,16.50
2018-07-22T17:16:34.127Z,17.57
2018-07-22T17:19:01.897Z,17.87
2018-07-22T17:21:29.651Z,19.67
2018-07-22T17:23:57.469Z,17.60
2018-07-22T17:26:25.173Z,18.42
2018-07-22T17:28:52.901Z,18.77
2018-07-22T17:31:20.658Z,19.05
2018-07-22T17:33:48.391Z,19.60
2018-07-22T17:36:16.256Z,17.95
2018-07-22T17:38:43.972Z,20.35
2018-07-22T17:41:11.791Z,20.90
2018-07-22T17:43:39.521Z,19.65
2018-07-22T17:46:07.291Z,20.70
2018-07-22T17:48:35.027Z,19.70
2018-07-22T17:51:02.818Z,20.92
2018-07-22T17:53:30.638Z,21.48
2018-07-22T17:55:58.432Z,20.68
2018-07-22T17:58:26.232Z,19.42
2018-07-22T18:00:53.918Z,20.40
2018-07-22T18:03:25.741Z,20.68
2018-07-22T18:05:53.415Z,20.80
2018-07-22T18:08:21.441Z,21.25
2018-07-22T18:10:50.103Z,20.85
2018-07-22T18:13:18.053Z,20.85
2018-07-22T18:15:45.809Z,21.35
2018-07-22T18:18:14.152Z,21.23
2018-07-22T18:20:42.809Z,20.77
2018-07-22T18:23:10.580Z,21.62
2018-07-22T18:25:38.336Z,19.65
2018-07-22T18:28:06.052Z,20.43
2018-07-22T18:30:33.953Z,20.32
2018-07-22T18:33:02.388Z,19.95
2018-07-22T18:35:30.237Z,18.92
2018-07-22T18:37:58.014Z,17.70
2018-07-22T18:40:26.262Z,18.05
2018-07-22T18:42:55.247Z,18.90
2018-07-22T18:45:23.498Z,18.77
2018-07-22T18:47:51.532Z,18.17
2018-07-22T18:50:20.222Z,16.80
2018-07-22T18:52:48.552Z,18.02
2018-07-22T18:55:16.824Z,16.25
2018-07-22T18:57:45.086Z,16.67
2018-07-22T19:00:13.286Z,16.65
2018-07-22T19:02:41.457Z,17.80
2018-07-22T19:05:09.627Z,17.07
2018-07-22T19:07:37.846Z,17.67
2018-07-22T19:10:06.516Z,17.27
2018-07-22T19:12:34.555Z,17.52
2018-07-22T19:15:02.655Z,18.02
2018-07-22T19:17:30.860Z,18.15
2018-07-22T19:19:58.982Z,17.65
2018-07-22T19:22:27.056Z,17.42
2018-07-22T19:24:55.102Z,18.73
2018-07-22T19:27:23.267Z,18.48
2018-07-22T19:29:51.321Z,18.27
2018-07-22T19:32:19.364Z,18.52
2018-07-22T19:34:47.400Z,18.90
2018-07-22T19:37:15.460Z,18.77
2018-07-22T19:39:43.451Z,19.20
2018-07-22T19:42:11.713Z,18.60
2018-07-22T19:44:39.772Z,17.65
2018-07-22T19:47:07.797Z,18.48
2018-07-22T19:49:35.891Z,17.95
2018-07-22T19:52:03.966Z,19.10
2018-07-22T19:54:31.986Z,19.40
2018-07-22T19:57:00.090Z,19.42
2018-07-22T19:59:28.263Z,19.90
2018-07-22T20:01:56.460Z,20.05
2018-07-22T20:04:24.550Z,20.30
2018-07-22T20:06:52.576Z,18.87
2018-07-22T20:09:20.675Z,19.60
2018-07-22T20:11:48.777Z,20.32
2018-07-22T20:14:17.959Z,19.62
2018-07-22T20:16:46.238Z,20.45
2018-07-22T20:19:14.353Z,20.00
2018-07-22T20:21:42.362Z,21.07
2018-07-22T20:24:10.446Z,20.10
2018-07-22T20:26:38.549Z,21.45
2018-07-22T20:29:06.472Z,22.22
2018-07-22T20:31:34.184Z,21.90
2018-07-22T20:34:01.876Z,21.20
2018-07-22T20:36:29.901Z,21.52
2018-07-22T20:38:57.669Z,21.87
2018-07-22T20:41:25.380Z,22.52
2018-07-22T20:43:53.219Z,23.77
2018-07-22T20:46:20.974Z,21.75
2018-07-22T20:48:48.676Z,23.60
2018-07-22T20:51:16.485Z,21.48
2018-07-22T20:53:44.131Z,21.42
2018-07-22T20:56:11.865Z,21.45
2018-07-22T20:58:39.695Z,21.30
2018-07-22T21:01:07.515Z,21.77
2018-07-22T21:03:35.253Z,20.43
2018-07-22T21:06:02.979Z,22.50
2018-07-22T21:08:30.832Z,22.07
2018-07-22T21:10:58.603Z,21.37
2018-07-22T21:13:26.996Z,20.30
2018-07-22T21:15:55.085Z,20.95
2018-07-22T21:18:22.918Z,20.00
2018-07-22T21:20:50.642Z,19.92
2018-07-22T21:23:18.319Z,20.50
2018-07-22T21:25:45.978Z,22.67
2018-07-22T21:28:13.788Z,19.95
2018-07-22T21:30:41.454Z,19.87
2018-07-22T21:33:09.270Z,21.40
2018-07-22T21:35:36.961Z,20.90
2018-07-22T21:38:04.844Z,22.65
2018-07-22T21:40:32.499Z,21.82
2018-07-22T21:43:00.322Z,22.90
2018-07-22T21:45:28.040Z,22.95
2018-07-22T21:47:55.873Z,23.95
2018-07-22T21:50:23.539Z,24.27
2018-07-22T21:52:51.248Z,23.25
2018-07-22T21:55:18.919Z,23.25
2018-07-22T21:57:46.821Z,22.02
2018-07-22T22:00:21.783Z,22.32
2018-07-22T22:02:49.663Z,24.37
2018-07-22T22:05:17.366Z,22.52
2018-07-22T22:07:45.080Z,23.45
2018-07-22T22:10:12.821Z,22.27
2018-07-22T22:12:40.528Z,22.27
2018-07-22T22:15:24.955Z,21.97
2018-07-22T22:17:53.836Z,22.30
2018-07-22T22:20:21.511Z,23.12
2018-07-22T22:22:49.160Z,22.77
2018-07-22T22:25:17.140Z,23.20
2018-07-22T22:27:44.946Z,22.30
2018-07-22T22:30:14.225Z,22.15
2018-07-22T22:32:42.297Z,23.12
2018-07-22T22:35:10.028Z,22.40
2018-07-22T22:37:37.844Z,22.67
2018-07-22T22:40:05.555Z,23.57
2018-07-22T22:42:33.238Z,24.57
2018-07-22T22:45:01.040Z,22.67
2018-07-22T22:47:28.743Z,24.40
2018-07-22T22:49:56.555Z,22.77
2018-07-22T22:52:24.271Z,22.27
2018-07-22T22:54:51.978Z,24.77
2018-07-22T22:57:19.711Z,22.05
2018-07-22T22:59:47.414Z,25.60
2018-07-22T23:02:15.232Z,24.72
2018-07-22T23:04:42.926Z,27.60
2018-07-22T23:07:10.711Z,25.45
2018-07-22T23:09:38.352Z,25.25
2018-07-22T23:12:06.047Z,24.77
2018-07-22T23:14:33.698Z,26.93
2018-07-22T23:17:01.367Z,25.00
2018-07-22T23:19:29.002Z,24.95
2018-07-22T23:21:56.790Z,24.63
2018-07-22T23:24:24.448Z,24.40
2018-07-22T23:26:52.123Z,25.90
2018-07-22T23:29:19.775Z,26.00
2018-07-22T23:31:47.437Z,25.50
2018-07-22T23:34:15.119Z,26.10
2018-07-22T23:36:42.881Z,27.70
2018-07-22T23:39:10.563Z,27.80
2018-07-22T23:41:38.208Z,26.02
2018-07-22T23:44:06.037Z,27.42
2018-07-22T23:46:33.740Z,28.10
2018-07-22T23:49:01.407Z,25.60
2018-07-22T23:51:29.064Z,27.13
2018-07-22T23:53:56.844Z,25.90
2018-07-22T23:56:24.593Z,24.82
2018-07-22T23:58:52.351Z,26.82
